createdAt,value
2023-01-07T06:00:25.040Z,100038.44
2023-01-07T06:02:51.577Z,100035.88
2023-01-07T06:05:18.836Z,100036.78
2023-01-07T06:07:45.974Z,100037.78
2023-01-07T06:10:13.179Z,100034.31
2023-01-07T06:12:39.816Z,100036.13
2023-01-07T06:15:07.457Z,100032.66
2023-01-07T06:17:34.759Z,100037.13
2023-01-07T06:20:01.588Z,100030.13
2023-01-07T06:22:28.788Z,100028.41
2023-01-07T06:24:55.327Z,100023.13
2023-01-07T06:27:22.596Z,100029.34
2023-01-07T06:29:49.184Z,100024.97
2023-01-07T06:32:16.467Z,100026.81
2023-01-07T06:34:43.015Z,100025.03
2023-01-07T06:37:10.210Z,100032.09
2023-01-07T06:39:36.751Z,100028.59
2023-01-07T06:42:04.030Z,100018.94
2023-01-07T06:44:30.842Z,100021.53
2023-01-07T06:46:58.040Z,100018.84
2023-01-07T06:49:24.598Z,100014.28
2023-01-07T06:51:51.793Z,100011.66
2023-01-07T06:54:18.341Z,100009.00
2023-01-07T06:56:45.514Z,100015.03
2023-01-07T06:59:12.114Z,100017.53
2023-01-07T07:01:39.354Z,100014.94
2023-01-07T07:04:07.085Z,100010.41
2023-01-07T07:06:34.224Z,100011.28
2023-01-07T07:09:00.953Z,100013.03
2023-01-07T07:11:28.164Z,100008.59
2023-01-07T07:13:54.956Z,100011.22
2023-01-07T07:16:24.779Z,100005.03
2023-01-07T07:18:53.117Z,100004.06
2023-01-07T07:21:20.220Z,100004.06
2023-01-07T07:23:46.844Z,100000.53
2023-01-07T07:26:14.326Z,100004.00
2023-01-07T07:28:42.750Z,100000.22
2023-01-07T07:31:10.328Z,100000.97
2023-01-07T07:33:37.245Z,99991.94
2023-01-07T07:36:05.010Z,99990.94
2023-01-07T07:38:32.183Z,99985.63
2023-01-07T07:41:00.678Z,99990.72
2023-01-07T07:43:27.326Z,99987.06
2023-01-07T07:45:54.197Z,99990.53
2023-01-07T07:48:21.479Z,99991.25
2023-01-07T07:50:51.430Z,99988.44
2023-01-07T07:53:19.624Z,99983.75
2023-01-07T07:55:46.563Z,99984.53
2023-01-07T07:58:14.371Z,99980.84
2023-01-07T08:00:41.037Z,99978.00
2023-01-07T08:03:08.467Z,99976.06
2023-01-07T08:05:35.122Z,99962.72
2023-01-07T08:08:02.389Z,99966.19
2023-01-07T08:10:29.524Z,99957.34
2023-01-07T08:12:56.084Z,99968.59
2023-01-07T08:15:22.976Z,99965.94
2023-01-07T08:17:57.879Z,99965.94
2023-01-07T08:20:24.508Z,99968.50
2023-01-07T08:22:51.713Z,99960.41
2023-01-07T08:25:18.352Z,99960.31
2023-01-07T08:27:45.664Z,99967.38
2023-01-07T08:30:12.839Z,99960.19
2023-01-07T08:32:39.349Z,99965.50
2023-01-07T08:35:06.837Z,99951.22
2023-01-07T08:37:34.058Z,99952.16
2023-01-07T08:40:00.662Z,99949.41
2023-01-07T08:42:28.296Z,99951.00
2023-01-07T08:44:54.837Z,99946.63
2023-01-07T08:47:22.054Z,99947.28
2023-01-07T08:49:48.643Z,99940.94
2023-01-07T08:52:15.840Z,99947.00
2023-01-07T08:54:42.817Z,99948.75
2023-01-07T08:57:10.167Z,99947.00
2023-01-07T08:59:38.638Z,99949.56
2023-01-07T09:02:05.983Z,99943.28
2023-01-07T09:04:32.616Z,99944.00
2023-01-07T09:06:59.822Z,99941.16
2023-01-07T09:09:26.366Z,99937.47
2023-01-07T09:11:53.551Z,99937.47
2023-01-07T09:14:20.125Z,99933.97
2023-01-07T09:16:47.290Z,99939.19
2023-01-07T09:19:13.855Z,99944.38
2023-01-07T09:21:41.376Z,99935.41
2023-01-07T09:24:08.080Z,99935.28
2023-01-07T09:26:35.293Z,99929.97
2023-01-07T09:29:01.972Z,99926.41
2023-01-07T09:31:29.253Z,99929.78
2023-01-07T09:33:55.876Z,99928.00
2023-01-07T09:36:23.021Z,99931.50
2023-01-07T09:38:49.586Z,99933.91
2023-01-07T09:41:58.602Z,99933.78
2023-01-07T09:44:53.069Z,99927.78
2023-01-07T09:47:25.436Z,99935.69
2023-01-07T09:49:59.117Z,99928.72
2023-01-07T09:52:37.174Z,99926.91
2023-01-07T09:55:39.326Z,99934.72
2023-01-07T09:58:26.923Z,99926.75
2023-01-07T10:00:57.056Z,99936.41
2023-01-07T10:03:29.846Z,99926.41
2023-01-07T10:06:06.056Z,99927.22
2023-01-07T10:08:54.362Z,99924.56
2023-01-07T10:11:30.329Z,99916.38
2023-01-07T10:14:11.537Z,99913.59
2023-01-07T10:16:55.066Z,99905.44
2023-01-07T10:19:30.177Z,99899.34
2023-01-07T10:22:03.431Z,99903.63
2023-01-07T10:24:39.126Z,99907.13
2023-01-07T10:27:13.504Z,99894.72
2023-01-07T10:29:50.850Z,99891.91
2023-01-07T10:32:23.667Z,99883.88
2023-01-07T10:34:56.283Z,99880.41
2023-01-07T10:37:34.238Z,99882.88
2023-01-07T10:40:28.712Z,99874.69
2023-01-07T10:43:20.099Z,99868.66
2023-01-07T10:46:05.411Z,99871.00
2023-01-07T10:48:41.415Z,99865.81
2023-01-07T10:51:23.842Z,99860.25
2023-01-07T10:54:27.905Z,99846.91
2023-01-07T10:57:01.546Z,99845.03
2023-01-07T10:59:28.158Z,99834.47
2023-01-07T11:01:59.463Z,99834.38
2023-01-07T11:04:26.798Z,99829.69
2023-01-07T11:07:04.447Z,99827.09
2023-01-07T11:09:35.330Z,99821.03
2023-01-07T11:12:25.611Z,99819.91
2023-01-07T11:14:56.714Z,99811.06
2023-01-07T11:17:34.570Z,99803.97
2023-01-07T11:20:01.200Z,99803.69
2023-01-07T11:22:29.861Z,99802.59
2023-01-07T11:24:58.480Z,99799.00
2023-01-07T11:27:28.798Z,99784.88
2023-01-07T11:30:26.609Z,99783.16
2023-01-07T11:32:59.360Z,99781.09
2023-01-07T11:35:30.647Z,99771.34
2023-01-07T11:37:59.311Z,99767.06
2023-01-07T11:40:31.643Z,99763.59
2023-01-07T11:43:22.354Z,99748.50
2023-01-07T11:46:19.643Z,99750.16
2023-01-07T11:48:57.249Z,99742.34
2023-01-07T11:51:25.211Z,99741.28
2023-01-07T11:53:59.958Z,99729.56
2023-01-07T11:56:30.920Z,99730.38
2023-01-07T11:59:35.805Z,99730.38
2023-01-07T12:02:03.139Z,99720.81
2023-01-07T12:04:33.060Z,99720.81
2023-01-07T12:07:04.560Z,99717.88
2023-01-07T12:09:31.072Z,99706.28
2023-01-07T12:12:06.312Z,99699.81
2023-01-07T12:14:37.519Z,99693.50
2023-01-07T12:17:17.528Z,99682.00
2023-01-07T12:19:52.923Z,99678.19
2023-01-07T12:22:48.845Z,99679.00
2023-01-07T12:25:45.863Z,99672.88
2023-01-07T12:28:16.642Z,99664.78
2023-01-07T12:30:54.756Z,99663.78
2023-01-07T12:33:39.276Z,99655.69
2023-01-07T12:36:18.623Z,99650.25
2023-01-07T12:38:50.747Z,99647.88
2023-01-07T12:41:23.434Z,99637.28
2023-01-07T12:44:02.680Z,99624.22
2023-01-07T12:46:41.369Z,99609.94
2023-01-07T12:49:23.085Z,99609.16
2023-01-07T12:52:13.491Z,99611.81
2023-01-07T12:54:45.608Z,99602.78
2023-01-07T12:57:34.480Z,99595.59
2023-01-07T13:00:19.424Z,99591.97
2023-01-07T13:02:56.288Z,99581.63
2023-01-07T13:06:05.081Z,99580.69
2023-01-07T13:08:47.145Z,99573.00
2023-01-07T13:11:45.254Z,99584.34
2023-01-07T13:14:32.007Z,99569.59
2023-01-07T13:17:15.690Z,99565.78
2023-01-07T13:19:42.485Z,99564.72
2023-01-07T13:22:17.874Z,99564.41
2023-01-07T13:24:59.839Z,99554.78
2023-01-07T13:27:39.924Z,99546.09
2023-01-07T13:30:42.038Z,99547.59
2023-01-07T13:33:39.629Z,99537.06
2023-01-07T13:36:28.269Z,99533.84
2023-01-07T13:38:57.800Z,99527.63
2023-01-07T13:41:40.146Z,99522.38
2023-01-07T13:44:31.676Z,99530.13
2023-01-07T13:47:02.629Z,99538.53
2023-01-07T13:49:33.030Z,99530.69
2023-01-07T13:52:21.086Z,99532.59
2023-01-07T13:54:50.533Z,99531.16
2023-01-07T13:57:23.706Z,99531.16
2023-01-07T13:59:52.767Z,99534.72
2023-01-07T14:02:22.772Z,99534.72
2023-01-07T14:05:23.185Z,99532.72
2023-01-07T14:07:59.828Z,99523.03
2023-01-07T14:10:31.795Z,99521.72
2023-01-07T14:13:31.569Z,99520.13
2023-01-07T14:16:07.737Z,99519.50
2023-01-07T14:18:57.739Z,99516.19
2023-01-07T14:22:10.281Z,99505.56
2023-01-07T14:24:58.334Z,99501.09
2023-01-07T14:27:30.302Z,99498.50
2023-01-07T14:30:15.923Z,99492.31
2023-01-07T14:32:44.509Z,99502.09
2023-01-07T14:35:11.579Z,99494.13
2023-01-07T14:37:42.033Z,99501.81
2023-01-07T14:40:27.286Z,99494.78
2023-01-07T14:42:54.935Z,99492.38
2023-01-07T14:45:36.815Z,99487.06
2023-01-07T14:48:27.958Z,99487.06
2023-01-07T14:51:19.439Z,99477.53
2023-01-07T14:53:52.214Z,99479.09
2023-01-07T14:56:28.410Z,99470.34
2023-01-07T14:59:15.477Z,99469.69
2023-01-07T15:02:18.619Z,99466.03
2023-01-07T15:05:22.610Z,99458.13
2023-01-07T15:08:27.717Z,99452.94
2023-01-07T15:11:17.436Z,99458.66
2023-01-07T15:14:20.301Z,99458.81
2023-01-07T15:16:50.748Z,99450.84
2023-01-07T15:19:17.646Z,99450.06
2023-01-07T15:22:07.993Z,99456.47
2023-01-07T15:25:01.419Z,99452.94
2023-01-07T15:27:35.036Z,99454.09
2023-01-07T15:30:02.240Z,99445.16
2023-01-07T15:33:01.243Z,99446.97
2023-01-07T15:35:40.829Z,99432.94
2023-01-07T15:38:24.373Z,99426.06
2023-01-07T15:40:51.749Z,99432.03
2023-01-07T15:43:25.236Z,99423.41
2023-01-07T15:46:06.696Z,99421.94
2023-01-07T15:48:33.716Z,99423.81
2023-01-07T15:51:00.999Z,99415.84
2023-01-07T15:53:30.010Z,99417.69
2023-01-07T15:56:05.724Z,99423.91
2023-01-07T15:58:40.169Z,99425.94
2023-01-07T16:01:13.789Z,99418.00
2023-01-07T16:03:42.228Z,99418.53
2023-01-07T16:06:34.987Z,99411.34
2023-01-07T16:09:18.441Z,99400.88
2023-01-07T16:11:46.245Z,99420.41
2023-01-07T16:14:18.415Z,99407.38
2023-01-07T16:16:45.884Z,99403.88
2023-01-07T16:19:20.754Z,99400.50
2023-01-07T16:21:59.951Z,99387.22
2023-01-07T16:24:26.899Z,99381.25
2023-01-07T16:26:59.555Z,99373.44
2023-01-07T16:29:30.242Z,99376.44
2023-01-07T16:31:59.105Z,99379.13
2023-01-07T16:34:25.587Z,99379.47
2023-01-07T16:36:55.785Z,99372.66
2023-01-07T16:39:26.207Z,99374.50
2023-01-07T16:42:12.719Z,99368.53
2023-01-07T16:44:44.083Z,99362.56
2023-01-07T16:47:23.983Z,99368.13
2023-01-07T16:49:51.350Z,99367.44
2023-01-07T16:52:20.689Z,99370.09
2023-01-07T16:54:48.553Z,99368.63
2023-01-07T16:57:15.725Z,99363.56
2023-01-07T16:59:55.360Z,99354.94
2023-01-07T17:02:42.211Z,99353.47
2023-01-07T17:05:26.372Z,99356.25
2023-01-07T17:08:01.203Z,99355.59
2023-01-07T17:10:32.124Z,99350.41
2023-01-07T17:13:01.411Z,99345.25
2023-01-07T17:15:34.572Z,99341.94
2023-01-07T17:18:26.628Z,99348.25
2023-01-07T17:20:56.030Z,99343.09
2023-01-07T17:23:25.566Z,99347.66
2023-01-07T17:26:05.151Z,99350.50
2023-01-07T17:28:34.396Z,99343.72
2023-01-07T17:31:02.112Z,99332.44
2023-01-07T17:33:28.870Z,99338.78
2023-01-07T17:35:57.717Z,99336.28
2023-01-07T17:38:24.463Z,99333.84
2023-01-07T17:40:52.439Z,99336.50
2023-01-07T17:43:34.007Z,99335.69
2023-01-07T17:46:11.128Z,99331.47
2023-01-07T17:48:38.779Z,99330.78
2023-01-07T17:51:07.418Z,99330.91
2023-01-07T17:53:39.174Z,99328.38
2023-01-07T17:56:06.765Z,99332.06
2023-01-07T17:58:35.602Z,99334.13
2023-01-07T18:01:06.813Z,99341.28
2023-01-07T18:03:33.670Z,99339.56
2023-01-07T18:06:01.064Z,99338.78
2023-01-07T18:08:27.724Z,99334.38
2023-01-07T18:11:15.052Z,99321.31
2023-01-07T18:13:41.862Z,99317.97
2023-01-07T18:16:12.793Z,99324.25
2023-01-07T18:18:39.405Z,99321.66
2023-01-07T18:21:06.676Z,99327.03
2023-01-07T18:23:33.310Z,99326.94
2023-01-07T18:26:00.488Z,99327.59
2023-01-07T18:28:27.065Z,99315.38
2023-01-07T18:30:54.258Z,99316.22
2023-01-07T18:33:20.834Z,99311.72
2023-01-07T18:35:48.497Z,99309.97
2023-01-07T18:38:16.394Z,99306.41
2023-01-07T18:40:43.822Z,99316.31
2023-01-07T18:43:18.436Z,99303.97
2023-01-07T18:45:46.925Z,99312.84
2023-01-07T18:48:15.642Z,99313.66
2023-01-07T18:50:48.213Z,99324.25
2023-01-07T18:53:16.102Z,99306.53
2023-01-07T18:55:44.211Z,99317.16
2023-01-07T18:58:14.272Z,99316.31
2023-01-07T19:00:42.471Z,99318.22
2023-01-07T19:03:10.614Z,99319.19
2023-01-07T19:05:39.731Z,99316.47
2023-01-07T19:08:06.505Z,99309.50
2023-01-07T19:10:33.632Z,99302.56
2023-01-07T19:13:01.053Z,99297.34
2023-01-07T19:15:28.385Z,99291.22
2023-01-07T19:17:55.550Z,99300.88
2023-01-07T19:20:22.823Z,99290.38
2023-01-07T19:22:49.424Z,99292.25
2023-01-07T19:25:16.772Z,99286.16
2023-01-07T19:27:43.416Z,99267.69
2023-01-07T19:30:10.982Z,99263.38
2023-01-07T19:32:37.583Z,99254.59
2023-01-07T19:35:05.197Z,99244.91
2023-01-07T19:37:31.750Z,99236.94
2023-01-07T19:39:58.896Z,99236.19
2023-01-07T19:42:25.460Z,99236.94
2023-01-07T19:44:52.712Z,99224.63
2023-01-07T19:47:19.208Z,99219.34
2023-01-07T19:49:46.373Z,99215.88
2023-01-07T19:52:13.689Z,99215.03
2023-01-07T19:54:42.040Z,99196.56
2023-01-07T19:57:09.035Z,99192.06
2023-01-07T19:59:36.316Z,99198.16
2023-01-07T20:02:03.830Z,99201.03
2023-01-07T20:04:31.412Z,99188.88
2023-01-07T20:06:58.077Z,99201.16
2023-01-07T20:09:25.355Z,99186.31
2023-01-07T20:11:51.950Z,99188.06
2023-01-07T20:14:19.122Z,99171.50
2023-01-07T20:16:45.824Z,99175.84
2023-01-07T20:19:13.921Z,99173.28
2023-01-07T20:21:40.547Z,99165.34
2023-01-07T20:24:08.228Z,99178.63
2023-01-07T20:26:38.043Z,99191.00
2023-01-07T20:29:05.569Z,99189.19
2023-01-07T20:31:32.474Z,99190.06
2023-01-07T20:34:00.854Z,99191.72
2023-01-07T20:36:30.474Z,99203.97
2023-01-07T20:38:58.158Z,99189.75
2023-01-07T20:41:27.289Z,99178.28
2023-01-07T20:43:59.460Z,99183.44
2023-01-07T20:46:28.080Z,99177.19
2023-01-07T20:48:55.761Z,99171.88
2023-01-07T20:51:22.466Z,99162.88
2023-01-07T20:53:49.727Z,99175.00
2023-01-07T20:56:18.920Z,99184.59
2023-01-07T20:58:47.200Z,99180.06
2023-01-07T21:01:16.456Z,99161.47
2023-01-07T21:03:43.838Z,99155.94
2023-01-07T21:06:12.979Z,99165.44
2023-01-07T21:08:40.109Z,99166.28
2023-01-07T21:11:13.333Z,99161.63
2023-01-07T21:13:40.217Z,99159.00
2023-01-07T21:16:07.683Z,99160.69
2023-01-07T21:18:34.980Z,99157.78
2023-01-07T21:21:08.036Z,99153.94
2023-01-07T21:23:34.603Z,99150.50
2023-01-07T21:26:01.939Z,99143.50
2023-01-07T21:28:28.481Z,99143.34
